Time;durP1;ratioP1;P1;durP2;ratioP2;P2;SDS_P1;SDS_P2;PMS_P1;PMS_P2;Temp;Humidity;BMP_temperature;BMP_pressure;BME280_temperature;BME280_humidity;BME280_pressure;Samples;Min_cycle;Max_cycle;Signal;HPM_P1;HPM_P2
2022/02/26 00:00:00;;;;;;;;;;;;;;;;;;5093102;28;19954;-60
2022/02/26 00:02:26;;;;;;;;;;;;;;;;;;5092836;28;19977;-61
2022/02/26 00:04:53;;;;;;;;;;;;;;;;;;5091884;28;20286;-59
2022/02/26 00:07:19;;;;;;;;;;;;;;;;;;5092891;28;19916;-60
2022/02/26 00:09:46;;;;;;;;;;;;;;;;;;5092866;28;19915;-61
2022/02/26 00:12:12;;;;;;;;;;;;;;;;;;5092331;28;20265;-61
2022/02/26 00:14:39;;;;;;;;;;;;;;;;;;5092279;28;20045;-59
2022/02/26 00:17:05;;;;;;;;;;;;;;;;;;5092640;28;19918;-62
2022/02/26 00:19:32;;;;;;;;;;;;;;;;;;5092190;28;19924;-59
2022/02/26 00:21:58;;;;;;;;;;;;;;;;;;5089996;28;19969;-59
2022/02/26 00:24:25;;;;;;;;;;;;;;;;;;5092569;28;20246;-56
2022/02/26 00:26:51;;;;;;;;;;;;;;;;;;5092422;28;19978;-58
2022/02/26 00:29:18;;;;;;;;;;;;;;;;;;5092793;28;19912;-58
2022/02/26 00:31:44;;;;;;;;;;;;;;;;;;5092798;28;19955;-55
2022/02/26 00:34:11;;;;;;;;;;;;;;;;;;5091645;28;19908;-60
2022/02/26 00:36:37;;;;;;;;;;;;;;;;;;5091884;28;19908;-59
2022/02/26 00:39:04;;;;;;;;;;;;;;;;;;5092046;28;20032;-58
2022/02/26 00:41:30;;;;;;;;;;;;;;;;;;5091676;28;19947;-58
2022/02/26 00:43:56;;;;;;;;;;;;;;;;;;5091998;28;19915;-61
2022/02/26 00:46:23;;;;;;;;;;;;;;;;;;5091606;28;19908;-58
2022/02/26 00:51:34;;;;;;;;;;;;;;;;;;5092032;28;19915;-59
2022/02/26 00:54:00;;;;;;;;;;;;;;;;;;5092121;28;19912;-60
2022/02/26 00:56:27;;;;;;;;;;;;;;;;;;5091294;28;19919;-60
2022/02/26 00:58:53;;;;;;;;;;;;;;;;;;5091563;28;20403;-59
2022/02/26 01:01:20;;;;;;;;;;;;;;;;;;5092141;28;20045;-60
2022/02/26 01:03:46;;;;;;;;;;;;;;;;;;5091986;28;19908;-57
2022/02/26 01:06:13;;;;;;;;;;;;;;;;;;5094205;28;20387;-58
2022/02/26 01:08:39;;;;;;;;;;;;;;;;;;5095280;28;20256;-57
2022/02/26 01:11:09;;;;;;;;;;;;;;;;;;5095904;28;19908;-62
2022/02/26 01:13:35;;;;;;;;;;;;;;;;;;5094488;28;19977;-57
2022/02/26 01:16:02;;;;;;;;;;;;;;;;;;5095739;28;20350;-57
2022/02/26 01:18:28;;;;;;;;;;;;;;;;;;5094789;28;20446;-58
2022/02/26 01:20:55;;;;;;;;;;;;;;;;;;5094818;28;19908;-57
2022/02/26 01:23:21;;;;;;;;;;;;;;;;;;5095089;28;19931;-61
2022/02/26 01:25:48;;;;;;;;;;;;;;;;;;5094608;28;20255;-60
2022/02/26 01:28:14;;;;;;;;;;;;;;;;;;5095292;28;19916;-57
2022/02/26 01:30:41;;;;;;;;;;;;;;;;;;5094644;28;19915;-60
2022/02/26 01:33:07;;;;;;;;;;;;;;;;;;5089142;28;20376;-57
2022/02/26 01:35:34;;;;;;;;;;;;;;;;;;5089971;28;20019;-55
2022/02/26 01:38:00;;;;;;;;;;;;;;;;;;5091828;28;19970;-54
2022/02/26 01:40:27;;;;;;;;;;;;;;;;;;5093066;28;20278;-58
2022/02/26 01:42:53;;;;;;;;;;;;;;;;;;5090706;28;20314;-55
2022/02/26 01:45:20;;;;;;;;;;;;;;;;;;5090263;28;19912;-55
2022/02/26 01:47:46;;;;;;;;;;;;;;;;;;5087568;28;19919;-50
2022/02/26 01:50:13;;;;;;;;;;;;;;;;;;5091567;28;20281;-57
2022/02/26 01:52:39;;;;;;;;;;;;;;;;;;5090847;28;19908;-55
2022/02/26 01:55:06;;;;;;;;;;;;;;;;;;5089258;28;19915;-55
2022/02/26 01:57:32;;;;;;;;;;;;;;;;;;5091911;28;19920;-58
2022/02/26 01:59:59;;;;;;;;;;;;;;;;;;5090418;28;19916;-50
2022/02/26 02:02:25;;;;;;;;;;;;;;;;;;5090387;28;19948;-56
2022/02/26 02:04:52;;;;;;;;;;;;;;;;;;5088863;28;19973;-50
2022/02/26 02:07:18;;;;;;;;;;;;;;;;;;5091510;28;19918;-51
2022/02/26 02:09:45;;;;;;;;;;;;;;;;;;5091267;28;20487;-56
2022/02/26 02:12:11;;;;;;;;;;;;;;;;;;5091877;28;19908;-51
2022/02/26 02:14:37;;;;;;;;;;;;;;;;;;5089273;28;19984;-54
2022/02/26 02:17:04;;;;;;;;;;;;;;;;;;5090699;28;19915;-50
2022/02/26 02:19:30;;;;;;;;;;;;;;;;;;5091412;28;20336;-52
2022/02/26 02:21:57;;;;;;;;;;;;;;;;;;5091416;28;19926;-60
2022/02/26 02:24:23;;;;;;;;;;;;;;;;;;5090931;28;20354;-57
2022/02/26 02:26:50;;;;;;;;;;;;;;;;;;5089590;28;19920;-60
2022/02/26 02:29:16;;;;;;;;;;;;;;;;;;5094712;28;19993;-59
2022/02/26 02:31:43;;;;;;;;;;;;;;;;;;5094161;28;19915;-59
2022/02/26 02:34:10;;;;;;;;;;;;;;;;;;5094225;28;19908;-55
2022/02/26 02:36:36;;;;;;;;;;;;;;;;;;5093861;28;20020;-60
2022/02/26 02:39:02;;;;;;;;;;;;;;;;;;5092751;28;19916;-54
2022/02/26 02:41:29;;;;;;;;;;;;;;;;;;5093029;28;20039;-58
2022/02/26 02:43:55;;;;;;;;;;;;;;;;;;5092314;28;20314;-60
2022/02/26 02:46:22;;;;;;;;;;;;;;;;;;5093253;28;19920;-59
2022/02/26 02:48:48;;;;;;;;;;;;;;;;;;5093696;28;19995;-58
2022/02/26 02:51:15;;;;;;;;;;;;;;;;;;5093136;28;19908;-62
2022/02/26 02:53:41;;;;;;;;;;;;;;;;;;5092437;28;19908;-59
2022/02/26 02:56:08;;;;;;;;;;;;;;;;;;5093321;28;20339;-60
2022/02/26 02:58:34;;;;;;;;;;;;;;;;;;5092928;28;19955;-59
2022/02/26 03:01:01;;;;;;;;;;;;;;;;;;5093166;28;19977;-54
2022/02/26 03:03:27;;;;;;;;;;;;;;;;;;5092834;28;19912;-61
2022/02/26 03:05:54;;;;;;;;;;;;;;;;;;5092956;28;20286;-60
2022/02/26 03:08:24;;;;;;;;;;;;;;;;;;5092255;28;19908;-54
2022/02/26 03:10:50;;;;;;;;;;;;;;;;;;5087815;28;19919;-50
2022/02/26 03:13:17;;;;;;;;;;;;;;;;;;5090275;28;20397;-57
2022/02/26 03:15:43;;;;;;;;;;;;;;;;;;5091482;28;19908;-57
2022/02/26 03:18:10;;;;;;;;;;;;;;;;;;5089672;28;19957;-58
2022/02/26 03:20:36;;;;;;;;;;;;;;;;;;5088730;28;19935;-61
2022/02/26 03:23:03;;;;;;;;;;;;;;;;;;5090168;28;20079;-56
2022/02/26 03:25:29;;;;;;;;;;;;;;;;;;5090325;28;20380;-58
2022/02/26 03:27:56;;;;;;;;;;;;;;;;;;5087604;28;19916;-55
2022/02/26 03:30:22;;;;;;;;;;;;;;;;;;5089777;28;19912;-59
2022/02/26 03:32:48;;;;;;;;;;;;;;;;;;5090333;28;19959;-58
2022/02/26 03:35:15;;;;;;;;;;;;;;;;;;5090164;28;19915;-56
2022/02/26 03:37:41;;;;;;;;;;;;;;;;;;5087074;28;19916;-59
2022/02/26 03:40:09;;;;;;;;;;;;;;;;;;5090009;28;19916;-58
2022/02/26 03:42:35;;;;;;;;;;;;;;;;;;5089310;28;19908;-57
2022/02/26 03:45:02;;;;;;;;;;;;;;;;;;5090093;28;19908;-54
2022/02/26 03:47:28;;;;;;;;;;;;;;;;;;5086521;28;19912;-58
2022/02/26 03:49:55;;;;;;;;;;;;;;;;;;5090096;28;19961;-55
2022/02/26 03:52:22;;;;;;;;;;;;;;;;;;5089662;28;19933;-54
2022/02/26 03:54:49;;;;;;;;;;;;;;;;;;5088938;28;19922;-52
2022/02/26 03:57:15;;;;;;;;;;;;;;;;;;5088738;28;19927;-55
2022/02/26 03:59:42;;;;;;;;;;;;;;;;;;5087572;28;19923;-59
2022/02/26 04:02:08;;;;;;;;;;;;;;;;;;5088266;28;20382;-57
2022/02/26 04:04:35;;;;;;;;;;;;;;;;;;5088663;28;20334;-62
2022/02/26 04:07:01;;;;;;;;;;;;;;;;;;5088272;28;19959;-55
2022/02/26 04:09:28;;;;;;;;;;;;;;;;;;5086193;28;19909;-53
2022/02/26 04:11:54;;;;;;;;;;;;;;;;;;5089140;28;20274;-57
2022/02/26 04:14:21;;;;;;;;;;;;;;;;;;5088729;28;19912;-56
2022/02/26 04:16:47;;;;;;;;;;;;;;;;;;5089491;28;19908;-59
2022/02/26 04:19:14;;;;;;;;;;;;;;;;;;5086971;28;19916;-56
2022/02/26 04:21:40;;;;;;;;;;;;;;;;;;5091132;28;20272;-57
2022/02/26 04:24:07;;;;;;;;;;;;;;;;;;5091136;28;20008;-57
2022/02/26 04:26:33;;;;;;;;;;;;;;;;;;5091473;28;19916;-60
2022/02/26 04:29:00;;;;;;;;;;;;;;;;;;5085826;28;20301;-59
2022/02/26 04:31:26;;;;;;;;;;;;;;;;;;5092044;28;20350;-56
2022/02/26 04:33:53;;;;;;;;;;;;;;;;;;5087997;28;19956;-60
2022/02/26 04:36:19;;;;;;;;;;;;;;;;;;5087938;28;19962;-59
2022/02/26 04:38:46;;;;;;;;;;;;;;;;;;5088381;28;19967;-60
2022/02/26 04:41:12;;;;;;;;;;;;;;;;;;5091204;28;19961;-59
2022/02/26 04:43:39;;;;;;;;;;;;;;;;;;5094791;28;20365;-60
2022/02/26 04:46:05;;;;;;;;;;;;;;;;;;5095873;28;20257;-57
2022/02/26 04:48:32;;;;;;;;;;;;;;;;;;5095827;28;19908;-59
2022/02/26 04:50:58;;;;;;;;;;;;;;;;;;5095755;28;20386;-64
2022/02/26 04:53:25;;;;;;;;;;;;;;;;;;5096203;28;19954;-65
2022/02/26 04:55:52;;;;;;;;;;;;;;;;;;5096122;28;20276;-65
2022/02/26 04:58:18;;;;;;;;;;;;;;;;;;5091541;28;20301;-66
2022/02/26 05:00:45;;;;;;;;;;;;;;;;;;5095489;28;19915;-67
2022/02/26 05:03:11;;;;;;;;;;;;;;;;;;5096079;28;19951;-65
2022/02/26 05:05:38;;;;;;;;;;;;;;;;;;5095813;28;19968;-64
2022/02/26 05:08:05;;;;;;;;;;;;;;;;;;5096452;28;19919;-66
2022/02/26 05:10:31;;;;;;;;;;;;;;;;;;5093655;28;19908;-67
2022/02/26 05:12:57;;;;;;;;;;;;;;;;;;5094212;28;19954;-64
2022/02/26 05:15:24;;;;;;;;;;;;;;;;;;5095244;28;19908;-65
2022/02/26 05:17:50;;;;;;;;;;;;;;;;;;5095263;28;19943;-66
2022/02/26 05:20:17;;;;;;;;;;;;;;;;;;5095416;28;19973;-64
2022/02/26 05:22:43;;;;;;;;;;;;;;;;;;5095526;28;19947;-64
2022/02/26 05:25:10;;;;;;;;;;;;;;;;;;5095587;28;19915;-66
2022/02/26 05:27:37;;;;;;;;;;;;;;;;;;5095650;28;19908;-66
2022/02/26 05:30:03;;;;;;;;;;;;;;;;;;5095720;28;19908;-66
2022/02/26 05:32:29;;;;;;;;;;;;;;;;;;5095478;28;19962;-66
2022/02/26 05:34:56;;;;;;;;;;;;;;;;;;5095162;28;19908;-65
2022/02/26 05:37:23;;;;;;;;;;;;;;;;;;5095146;28;19968;-67
2022/02/26 05:39:49;;;;;;;;;;;;;;;;;;5095460;28;19916;-67
2022/02/26 05:42:16;;;;;;;;;;;;;;;;;;5095273;28;19908;-65
2022/02/26 05:44:42;;;;;;;;;;;;;;;;;;5095266;28;19908;-66
2022/02/26 05:47:09;;;;;;;;;;;;;;;;;;5095342;28;19919;-66
2022/02/26 05:49:35;;;;;;;;;;;;;;;;;;5095049;28;20050;-67
2022/02/26 05:52:02;;;;;;;;;;;;;;;;;;5095365;28;19908;-67
2022/02/26 05:54:28;;;;;;;;;;;;;;;;;;5094659;28;19912;-66
2022/02/26 05:56:55;;;;;;;;;;;;;;;;;;5094879;28;19914;-65
2022/02/26 05:59:21;;;;;;;;;;;;;;;;;;5094543;28;19923;-66
2022/02/26 06:01:48;;;;;;;;;;;;;;;;;;5094560;28;20025;-65
2022/02/26 06:04:14;;;;;;;;;;;;;;;;;;5094626;28;19919;-67
2022/02/26 06:06:40;;;;;;;;;;;;;;;;;;5093960;28;19908;-66
2022/02/26 06:09:07;;;;;;;;;;;;;;;;;;5095021;28;20365;-65
2022/02/26 06:11:33;;;;;;;;;;;;;;;;;;5094686;28;20317;-68
2022/02/26 06:14:00;;;;;;;;;;;;;;;;;;5095285;28;20286;-67
2022/02/26 06:16:26;;;;;;;;;;;;;;;;;;5101747;28;19915;-66
2022/02/26 06:18:53;;;;;;;;;;;;;;;;;;5114536;28;19915;-67
2022/02/26 06:21:19;;;;;;;;;;;;;;;;;;5115060;28;19908;-64
2022/02/26 06:23:46;;;;;;;;;;;;;;;;;;5114571;28;19908;-65
2022/02/26 06:26:12;;;;;;;;;;;;;;;;;;5114516;28;19938;-64
2022/02/26 06:28:39;;;;;;;;;;;;;;;;;;5114566;28;19919;-64
2022/02/26 06:31:05;;;;;;;;;;;;;;;;;;5114855;28;20225;-65
2022/02/26 06:33:32;;;;;;;;;;;;;;;;;;5114471;28;20008;-63
2022/02/26 06:35:58;;;;;;;;;;;;;;;;;;5114691;28;19912;-68
2022/02/26 06:38:25;;;;;;;;;;;;;;;;;;5114597;28;19915;-67
2022/02/26 06:40:51;;;;;;;;;;;;;;;;;;5114245;28;19939;-65
2022/02/26 06:43:18;;;;;;;;;;;;;;;;;;5114763;28;19908;-64
2022/02/26 06:45:44;;;;;;;;;;;;;;;;;;5114050;28;20010;-63
2022/02/26 06:48:11;;;;;;;;;;;;;;;;;;5114458;28;19908;-64
2022/02/26 06:50:37;;;;;;;;;;;;;;;;;;5114189;28;19907;-65
2022/02/26 06:53:04;;;;;;;;;;;;;;;;;;5114472;28;19908;-67
2022/02/26 06:55:30;;;;;;;;;;;;;;;;;;5114115;28;19921;-67
2022/02/26 06:57:57;;;;;;;;;;;;;;;;;;5113585;28;19965;-65
2022/02/26 07:00:23;;;;;;;;;;;;;;;;;;5113886;28;19984;-67
2022/02/26 07:02:50;;;;;;;;;;;;;;;;;;5113887;28;19954;-70
2022/02/26 07:05:16;;;;;;;;;;;;;;;;;;5114236;28;19914;-65
2022/02/26 07:07:43;;;;;;;;;;;;;;;;;;5113958;28;20345;-65
2022/02/26 07:10:09;;;;;;;;;;;;;;;;;;5113777;28;19962;-61
2022/02/26 07:12:36;;;;;;;;;;;;;;;;;;5113526;28;20433;-61
2022/02/26 07:15:02;;;;;;;;;;;;;;;;;;5113842;28;20316;-61
2022/02/26 07:17:29;;;;;;;;;;;;;;;;;;5113634;28;19912;-62
2022/02/26 07:19:55;;;;;;;;;;;;;;;;;;5113585;28;19915;-62
2022/02/26 07:22:22;;;;;;;;;;;;;;;;;;5113916;28;19908;-61
2022/02/26 07:24:48;;;;;;;;;;;;;;;;;;5114098;28;19915;-59
2022/02/26 07:27:16;;;;;;;;;;;;;;;;;;5113914;28;20351;-58
2022/02/26 07:29:43;;;;;;;;;;;;;;;;;;5113726;28;19959;-57
2022/02/26 07:32:09;;;;;;;;;;;;;;;;;;5113594;28;19912;-58
2022/02/26 07:34:36;;;;;;;;;;;;;;;;;;5099701;28;20364;-59
2022/02/26 07:37:02;;;;;;;;;;;;;;;;;;5090383;28;19908;-52
2022/02/26 07:39:29;;;;;;;;;;;;;;;;;;5088954;28;19936;-56
2022/02/26 07:41:55;;;;;;;;;;;;;;;;;;5090405;28;20369;-58
2022/02/26 07:44:21;;;;;;;;;;;;;;;;;;5089274;28;20370;-52
2022/02/26 07:46:48;;;;;;;;;;;;;;;;;;5089654;28;20614;-54
2022/02/26 07:49:14;;;;;;;;;;;;;;;;;;5088075;28;19908;-51
2022/02/26 07:51:41;;;;;;;;;;;;;;;;;;5090334;28;19962;-55
2022/02/26 07:54:07;;;;;;;;;;;;;;;;;;5089454;28;19919;-48
2022/02/26 07:56:34;;;;;;;;;;;;;;;;;;5089530;28;20019;-52
2022/02/26 07:59:00;;;;;;;;;;;;;;;;;;5087480;28;19985;-46
2022/02/26 08:01:27;;;;;;;;;;;;;;;;;;5090038;28;19954;-56
2022/02/26 08:03:53;;;;;;;;;;;;;;;;;;5089524;28;20292;-57
2022/02/26 08:06:20;;;;;;;;;;;;;;;;;;5089516;28;19908;-56
2022/02/26 08:08:47;;;;;;;;;;;;;;;;;;5086547;28;20011;-58
2022/02/26 08:11:13;;;;;;;;;;;;;;;;;;5089614;28;19908;-55
2022/02/26 08:13:40;;;;;;;;;;;;;;;;;;5089661;28;19908;-51
2022/02/26 08:16:08;;;;;;;;;;;;;;;;;;5093561;28;20819;-49
2022/02/26 08:18:35;;;;;;;;;;;;;;;;;;5091528;28;20233;-56
2022/02/26 08:21:02;;;;;;;;;;;;;;;;;;5093480;28;19908;-52
2022/02/26 08:23:28;;;;;;;;;;;;;;;;;;5094081;28;19958;-55
2022/02/26 08:25:55;;;;;;;;;;;;;;;;;;5093903;28;19909;-56
2022/02/26 08:28:21;;;;;;;;;;;;;;;;;;5091175;28;19916;-53
2022/02/26 08:30:48;;;;;;;;;;;;;;;;;;5093410;28;19912;-54
2022/02/26 08:33:14;;;;;;;;;;;;;;;;;;5094047;28;19908;-50
2022/02/26 08:35:41;;;;;;;;;;;;;;;;;;5093936;28;19912;-61
2022/02/26 08:38:07;;;;;;;;;;;;;;;;;;5088384;28;19923;-54
2022/02/26 08:40:34;;;;;;;;;;;;;;;;;;5093470;28;19971;-57
2022/02/26 08:43:00;;;;;;;;;;;;;;;;;;5094133;28;19912;-51
2022/02/26 08:45:27;;;;;;;;;;;;;;;;;;5091167;28;19945;-55
2022/02/26 08:47:53;;;;;;;;;;;;;;;;;;5089709;28;19951;-55
2022/02/26 08:50:21;;;;;;;;;;;;;;;;;;5092126;28;20364;-57
2022/02/26 08:52:50;;;;;;;;;;;;;;;;;;5091170;28;20289;-58
2022/02/26 08:55:17;;;;;;;;;;;;;;;;;;5090277;28;20354;-58
2022/02/26 08:57:43;;;;;;;;;;;;;;;;;;5093090;28;19924;-55
2022/02/26 09:00:10;;;;;;;;;;;;;;;;;;5088068;28;19908;-57
2022/02/26 09:02:37;;;;;;;;;;;;;;;;;;5090440;28;19912;-50
2022/02/26 09:05:03;;;;;;;;;;;;;;;;;;5091335;28;19919;-55
2022/02/26 09:07:30;;;;;;;;;;;;;;;;;;5090921;28;19930;-53
2022/02/26 09:09:56;;;;;;;;;;;;;;;;;;5088307;28;19909;-56
2022/02/26 09:12:23;;;;;;;;;;;;;;;;;;5091210;28;19908;-54
2022/02/26 09:14:49;;;;;;;;;;;;;;;;;;5092325;28;19931;-54
2022/02/26 09:17:16;;;;;;;;;;;;;;;;;;5091063;28;19909;-55
2022/02/26 09:19:42;;;;;;;;;;;;;;;;;;5090535;28;19923;-51
2022/02/26 09:22:09;;;;;;;;;;;;;;;;;;5092719;28;19942;-50
2022/02/26 09:24:35;;;;;;;;;;;;;;;;;;5093194;28;19908;-56
2022/02/26 09:27:02;;;;;;;;;;;;;;;;;;5092812;28;20331;-54
2022/02/26 09:29:28;;;;;;;;;;;;;;;;;;5090158;28;20347;-54
2022/02/26 09:31:55;;;;;;;;;;;;;;;;;;5092873;28;19994;-58
2022/02/26 09:34:21;;;;;;;;;;;;;;;;;;5093895;28;19916;-57
2022/02/26 09:36:50;;;;;;;;;;;;;;;;;;5092942;28;19916;-53
2022/02/26 09:39:17;;;;;;;;;;;;;;;;;;5095676;28;19969;-54
2022/02/26 09:41:43;;;;;;;;;;;;;;;;;;5095569;28;19908;-57
2022/02/26 09:44:10;;;;;;;;;;;;;;;;;;5094981;28;19923;-59
2022/02/26 09:46:36;;;;;;;;;;;;;;;;;;5090332;28;19916;-62
2022/02/26 09:49:03;;;;;;;;;;;;;;;;;;5091568;28;20386;-61
2022/02/26 09:51:30;;;;;;;;;;;;;;;;;;5092001;28;19914;-60
2022/02/26 09:53:57;;;;;;;;;;;;;;;;;;5093600;28;19999;-50
2022/02/26 09:56:23;;;;;;;;;;;;;;;;;;5092285;28;19966;-56
2022/02/26 09:58:50;;;;;;;;;;;;;;;;;;5090849;28;19967;-57
2022/02/26 10:01:16;;;;;;;;;;;;;;;;;;5092076;28;19916;-55
2022/02/26 10:03:43;;;;;;;;;;;;;;;;;;5091553;28;19912;-55
2022/02/26 10:06:09;;;;;;;;;;;;;;;;;;5093814;28;19990;-54
2022/02/26 10:08:36;;;;;;;;;;;;;;;;;;5089960;28;20282;-51
2022/02/26 10:11:02;;;;;;;;;;;;;;;;;;5092324;28;20262;-56
2022/02/26 10:13:29;;;;;;;;;;;;;;;;;;5091670;28;19999;-54
2022/02/26 10:15:55;;;;;;;;;;;;;;;;;;5092601;28;19908;-55
2022/02/26 10:18:22;;;;;;;;;;;;;;;;;;5088853;28;19912;-55
2022/02/26 10:20:54;;;;;;;;;;;;;;;;;;5090580;28;19911;-57
2022/02/26 10:23:21;;;;;;;;;;;;;;;;;;5090017;28;19916;-55
2022/02/26 10:25:47;;;;;;;;;;;;;;;;;;5092741;28;19908;-56
2022/02/26 10:28:14;;;;;;;;;;;;;;;;;;5088523;28;20239;-52
2022/02/26 10:30:40;;;;;;;;;;;;;;;;;;5091714;28;19914;-55
2022/02/26 10:33:07;;;;;;;;;;;;;;;;;;5091481;28;19965;-54
2022/02/26 10:35:33;;;;;;;;;;;;;;;;;;5091433;28;19977;-54
2022/02/26 10:38:00;;;;;;;;;;;;;;;;;;5086675;28;19948;-55
2022/02/26 10:40:26;;;;;;;;;;;;;;;;;;5088266;28;19916;-56
2022/02/26 10:42:52;;;;;;;;;;;;;;;;;;5092098;28;19915;-56
2022/02/26 10:45:22;;;;;;;;;;;;;;;;;;5091138;28;19912;-54
2022/02/26 10:47:49;;;;;;;;;;;;;;;;;;5087496;28;19908;-55
2022/02/26 10:50:15;;;;;;;;;;;;;;;;;;5091355;28;19994;-53
2022/02/26 10:52:42;;;;;;;;;;;;;;;;;;5090957;28;19954;-53
2022/02/26 10:55:08;;;;;;;;;;;;;;;;;;5091768;28;19912;-56
2022/02/26 10:57:35;;;;;;;;;;;;;;;;;;5087352;28;19935;-50
2022/02/26 11:00:01;;;;;;;;;;;;;;;;;;5091231;28;20401;-55
2022/02/26 11:02:29;;;;;;;;;;;;;;;;;;5091910;28;19912;-56
2022/02/26 11:04:56;;;;;;;;;;;;;;;;;;5090645;28;19908;-58
2022/02/26 11:07:22;;;;;;;;;;;;;;;;;;5088366;28;19962;-54
2022/02/26 11:09:52;;;;;;;;;;;;;;;;;;5091086;28;19919;-54
2022/02/26 11:12:18;;;;;;;;;;;;;;;;;;5090307;28;20350;-56
2022/02/26 11:14:45;;;;;;;;;;;;;;;;;;5090636;28;19908;-55
2022/02/26 11:17:11;;;;;;;;;;;;;;;;;;5088484;28;19950;-55
2022/02/26 11:19:38;;;;;;;;;;;;;;;;;;5089810;28;19917;-52
2022/02/26 11:22:04;;;;;;;;;;;;;;;;;;5090334;28;20350;-56
2022/02/26 11:24:31;;;;;;;;;;;;;;;;;;5090778;28;19920;-53
2022/02/26 11:26:57;;;;;;;;;;;;;;;;;;5089564;28;19908;-58
2022/02/26 11:29:24;;;;;;;;;;;;;;;;;;5087520;28;19912;-53
2022/02/26 11:31:53;;;;;;;;;;;;;;;;;;5090248;28;19908;-55
2022/02/26 11:34:20;;;;;;;;;;;;;;;;;;5091154;28;19908;-57
2022/02/26 11:36:47;;;;;;;;;;;;;;;;;;5090693;28;19912;-51
2022/02/26 11:39:13;;;;;;;;;;;;;;;;;;5087666;28;19916;-50
2022/02/26 11:41:40;;;;;;;;;;;;;;;;;;5091901;28;19962;-54
2022/02/26 11:44:06;;;;;;;;;;;;;;;;;;5090755;28;19916;-54
2022/02/26 11:46:38;;;;;;;;;;;;;;;;;;5088826;28;19968;-52
2022/02/26 11:49:05;;;;;;;;;;;;;;;;;;5086641;28;20298;-51
2022/02/26 11:51:31;;;;;;;;;;;;;;;;;;5090135;28;20274;-50
2022/02/26 11:53:57;;;;;;;;;;;;;;;;;;5090301;28;19917;-52
2022/02/26 11:56:26;;;;;;;;;;;;;;;;;;5089154;28;19947;-52
2022/02/26 11:58:52;;;;;;;;;;;;;;;;;;5086393;28;19932;-51
2022/02/26 12:01:24;;;;;;;;;;;;;;;;;;5089429;28;20201;-55
2022/02/26 12:03:50;;;;;;;;;;;;;;;;;;5089831;28;20411;-54
2022/02/26 12:06:17;;;;;;;;;;;;;;;;;;5089456;28;19908;-51
2022/02/26 12:08:46;;;;;;;;;;;;;;;;;;5087663;28;19908;-53
2022/02/26 12:11:13;;;;;;;;;;;;;;;;;;5090299;28;19908;-53
2022/02/26 12:13:39;;;;;;;;;;;;;;;;;;5089537;28;19931;-52
2022/02/26 12:16:06;;;;;;;;;;;;;;;;;;5090454;28;19966;-50
2022/02/26 12:18:32;;;;;;;;;;;;;;;;;;5087221;28;19916;-52
2022/02/26 12:20:59;;;;;;;;;;;;;;;;;;5090540;28;19912;-55
2022/02/26 12:23:25;;;;;;;;;;;;;;;;;;5087849;28;19915;-57
2022/02/26 12:25:52;;;;;;;;;;;;;;;;;;5092876;28;20347;-54
2022/02/26 12:28:18;;;;;;;;;;;;;;;;;;5093334;28;20278;-54
2022/02/26 12:30:45;;;;;;;;;;;;;;;;;;5093094;28;19908;-54
2022/02/26 12:33:12;;;;;;;;;;;;;;;;;;5092915;28;19908;-56
2022/02/26 12:35:39;;;;;;;;;;;;;;;;;;5092876;28;20019;-62
2022/02/26 12:38:05;;;;;;;;;;;;;;;;;;5092826;28;19922;-54
2022/02/26 12:40:32;;;;;;;;;;;;;;;;;;5092493;28;19911;-55
2022/02/26 12:42:58;;;;;;;;;;;;;;;;;;5092828;28;19912;-55
2022/02/26 12:45:24;;;;;;;;;;;;;;;;;;5092752;28;20007;-57
2022/02/26 12:47:51;;;;;;;;;;;;;;;;;;5092923;28;19904;-54
2022/02/26 12:50:17;;;;;;;;;;;;;;;;;;5092565;28;20348;-53
2022/02/26 12:52:44;;;;;;;;;;;;;;;;;;5091751;28;19991;-57
2022/02/26 12:55:10;;;;;;;;;;;;;;;;;;5092229;28;19908;-56
2022/02/26 12:57:37;;;;;;;;;;;;;;;;;;5092352;28;19999;-53
2022/02/26 13:00:03;;;;;;;;;;;;;;;;;;5092200;28;20256;-55
2022/02/26 13:02:30;;;;;;;;;;;;;;;;;;5095353;28;20304;-56
2022/02/26 13:04:56;;;;;;;;;;;;;;;;;;5095920;28;20254;-54
2022/02/26 13:07:23;;;;;;;;;;;;;;;;;;5095408;28;19911;-53
2022/02/26 13:09:52;;;;;;;;;;;;;;;;;;5095900;28;19912;-56
2022/02/26 13:12:19;;;;;;;;;;;;;;;;;;5096107;28;20301;-58
2022/02/26 13:14:45;;;;;;;;;;;;;;;;;;5095955;28;20328;-57
2022/02/26 13:17:12;;;;;;;;;;;;;;;;;;5096023;28;19931;-55
2022/02/26 13:19:38;;;;;;;;;;;;;;;;;;5090842;28;20013;-52
2022/02/26 13:22:04;;;;;;;;;;;;;;;;;;5091998;28;19916;-56
2022/02/26 13:24:32;;;;;;;;;;;;;;;;;;5093244;28;20287;-56
2022/02/26 13:26:58;;;;;;;;;;;;;;;;;;5094348;28;19916;-58
2022/02/26 13:29:26;;;;;;;;;;;;;;;;;;5091504;28;20002;-55
2022/02/26 13:31:52;;;;;;;;;;;;;;;;;;5090932;28;21099;-55
2022/02/26 13:34:19;;;;;;;;;;;;;;;;;;5092483;28;19950;-56
2022/02/26 13:36:45;;;;;;;;;;;;;;;;;;5092188;28;19962;-56
2022/02/26 13:39:12;;;;;;;;;;;;;;;;;;5091213;28;20298;-57
2022/02/26 13:41:39;;;;;;;;;;;;;;;;;;5090439;28;19916;-58
2022/02/26 13:44:07;;;;;;;;;;;;;;;;;;5092545;28;19927;-52
2022/02/26 13:46:34;;;;;;;;;;;;;;;;;;5091450;28;19908;-53
2022/02/26 13:49:00;;;;;;;;;;;;;;;;;;5092285;28;19908;-54
2022/02/26 13:51:26;;;;;;;;;;;;;;;;;;5089433;28;19964;-53
2022/02/26 13:53:53;;;;;;;;;;;;;;;;;;5092369;28;19927;-57
2022/02/26 13:56:19;;;;;;;;;;;;;;;;;;5091277;28;19919;-54
2022/02/26 13:58:46;;;;;;;;;;;;;;;;;;5091990;28;19938;-54
2022/02/26 14:01:12;;;;;;;;;;;;;;;;;;5091498;28;19961;-55
2022/02/26 14:03:39;;;;;;;;;;;;;;;;;;5089054;28;19962;-55
2022/02/26 14:06:05;;;;;;;;;;;;;;;;;;5091926;28;19978;-58
2022/02/26 14:08:32;;;;;;;;;;;;;;;;;;5090776;28;19912;-59
2022/02/26 14:11:01;;;;;;;;;;;;;;;;;;5089203;28;19914;-54
2022/02/26 14:13:28;;;;;;;;;;;;;;;;;;5088389;28;19915;-56
2022/02/26 14:15:56;;;;;;;;;;;;;;;;;;5092071;28;19912;-54
2022/02/26 14:18:22;;;;;;;;;;;;;;;;;;5091870;28;19919;-55
2022/02/26 14:20:49;;;;;;;;;;;;;;;;;;5091432;28;20389;-55
2022/02/26 14:23:15;;;;;;;;;;;;;;;;;;5088727;28;19995;-56
2022/02/26 14:25:42;;;;;;;;;;;;;;;;;;5091458;28;19916;-56
2022/02/26 14:28:09;;;;;;;;;;;;;;;;;;5091654;28;19972;-54
2022/02/26 14:30:35;;;;;;;;;;;;;;;;;;5090642;28;19908;-55
2022/02/26 14:33:01;;;;;;;;;;;;;;;;;;5088592;28;20346;-56
2022/02/26 14:35:28;;;;;;;;;;;;;;;;;;5091266;28;20246;-54
2022/02/26 14:37:54;;;;;;;;;;;;;;;;;;5091319;28;19918;-54
2022/02/26 14:40:24;;;;;;;;;;;;;;;;;;5090607;28;19912;-53
2022/02/26 14:42:51;;;;;;;;;;;;;;;;;;5087561;28;19908;-54
2022/02/26 14:45:17;;;;;;;;;;;;;;;;;;5090892;28;19934;-56
2022/02/26 14:47:43;;;;;;;;;;;;;;;;;;5090277;28;19912;-56
2022/02/26 14:50:10;;;;;;;;;;;;;;;;;;5090683;28;19916;-54
2022/02/26 14:52:37;;;;;;;;;;;;;;;;;;5088271;28;19912;-54
2022/02/26 14:55:04;;;;;;;;;;;;;;;;;;5090711;28;20003;-55
2022/02/26 14:57:30;;;;;;;;;;;;;;;;;;5089784;28;20366;-56
2022/02/26 14:59:57;;;;;;;;;;;;;;;;;;5090846;28;19916;-57
2022/02/26 15:02:23;;;;;;;;;;;;;;;;;;5087745;28;19962;-56
2022/02/26 15:04:50;;;;;;;;;;;;;;;;;;5091259;28;20484;-53
2022/02/26 15:07:16;;;;;;;;;;;;;;;;;;5090569;28;20002;-54
2022/02/26 15:09:43;;;;;;;;;;;;;;;;;;5091791;28;19908;-55
2022/02/26 15:12:09;;;;;;;;;;;;;;;;;;5088815;28;19912;-56
2022/02/26 15:14:36;;;;;;;;;;;;;;;;;;5090734;28;19977;-56
2022/02/26 15:17:02;;;;;;;;;;;;;;;;;;5090999;28;19966;-52
2022/02/26 15:19:31;;;;;;;;;;;;;;;;;;5089669;28;19924;-57
2022/02/26 15:21:57;;;;;;;;;;;;;;;;;;5091401;28;19960;-54
2022/02/26 15:24:24;;;;;;;;;;;;;;;;;;5093252;28;19908;-56
2022/02/26 15:26:52;;;;;;;;;;;;;;;;;;5093642;28;19982;-54
2022/02/26 15:29:18;;;;;;;;;;;;;;;;;;5093517;28;19965;-54
2022/02/26 15:31:44;;;;;;;;;;;;;;;;;;5093602;28;20334;-55
2022/02/26 15:34:11;;;;;;;;;;;;;;;;;;5093551;28;19908;-57
2022/02/26 15:36:37;;;;;;;;;;;;;;;;;;5093729;28;20021;-56
2022/02/26 15:39:05;;;;;;;;;;;;;;;;;;5093664;28;19924;-51
2022/02/26 15:41:31;;;;;;;;;;;;;;;;;;5093505;28;19920;-53
2022/02/26 15:43:58;;;;;;;;;;;;;;;;;;5093761;28;19908;-55
2022/02/26 15:46:26;;;;;;;;;;;;;;;;;;5093604;28;19947;-55
2022/02/26 15:48:55;;;;;;;;;;;;;;;;;;5092628;28;19912;-54
2022/02/26 15:51:22;;;;;;;;;;;;;;;;;;5093492;28;20308;-55
2022/02/26 15:53:48;;;;;;;;;;;;;;;;;;5093411;28;20266;-59
2022/02/26 15:56:15;;;;;;;;;;;;;;;;;;5093360;28;20251;-58
2022/02/26 15:58:41;;;;;;;;;;;;;;;;;;5093688;28;19920;-55
2022/02/26 16:01:08;;;;;;;;;;;;;;;;;;5093494;28;19908;-55
2022/02/26 16:03:34;;;;;;;;;;;;;;;;;;5093064;28;20068;-56
2022/02/26 16:06:01;;;;;;;;;;;;;;;;;;5093581;28;20354;-54
2022/02/26 16:08:28;;;;;;;;;;;;;;;;;;5093439;28;20397;-56
2022/02/26 16:10:54;;;;;;;;;;;;;;;;;;5093392;28;19909;-55
2022/02/26 16:13:21;;;;;;;;;;;;;;;;;;5093175;28;20377;-54
2022/02/26 16:15:50;;;;;;;;;;;;;;;;;;5092991;28;19908;-55
2022/02/26 16:18:16;;;;;;;;;;;;;;;;;;5092881;28;19924;-55
2022/02/26 16:20:43;;;;;;;;;;;;;;;;;;5093324;28;20011;-53
2022/02/26 16:23:09;;;;;;;;;;;;;;;;;;5092995;28;19912;-55
2022/02/26 16:25:36;;;;;;;;;;;;;;;;;;5091653;28;20007;-56
2022/02/26 16:28:02;;;;;;;;;;;;;;;;;;5093034;28;20363;-53
2022/02/26 16:30:29;;;;;;;;;;;;;;;;;;5093218;28;19919;-56
2022/02/26 16:32:55;;;;;;;;;;;;;;;;;;5092804;28;20270;-55
2022/02/26 16:35:22;;;;;;;;;;;;;;;;;;5093779;28;20421;-56
2022/02/26 16:37:48;;;;;;;;;;;;;;;;;;5096961;28;19915;-54
2022/02/26 16:40:15;;;;;;;;;;;;;;;;;;5096944;28;19923;-56
2022/02/26 16:42:41;;;;;;;;;;;;;;;;;;5096826;28;20419;-53